sensor_id;sensor_type;location;lat;lon;timestamp;P1;durP1;ratioP1;P2;durP2;ratioP2
72087;SDS011;59961;50.232;8.616;2022-12-22T00:00:12;11.98;;;6.88;;
72087;SDS011;59961;50.232;8.616;2022-12-22T00:02:56;13.07;;;7.45;;
72087;SDS011;59961;50.232;8.616;2022-12-22T00:05:40;12.20;;;7.10;;
72087;SDS011;59961;50.232;8.616;2022-12-22T00:08:24;13.20;;;7.20;;
72087;SDS011;59961;50.232;8.616;2022-12-22T00:11:09;16.13;;;7.57;;
72087;SDS011;59961;50.232;8.616;2022-12-22T00:13:53;12.30;;;7.05;;
72087;SDS011;59961;50.232;8.616;2022-12-22T00:16:37;12.82;;;6.68;;
72087;SDS011;59961;50.232;8.616;2022-12-22T00:19:21;13.40;;;7.03;;
72087;SDS011;59961;50.232;8.616;2022-12-22T00:22:17;13.03;;;7.43;;
72087;SDS011;59961;50.232;8.616;2022-12-22T00:25:02;11.68;;;7.05;;
72087;SDS011;59961;50.232;8.616;2022-12-22T00:27:45;13.00;;;7.53;;
72087;SDS011;59961;50.232;8.616;2022-12-22T00:30:29;13.38;;;7.35;;
72087;SDS011;59961;50.232;8.616;2022-12-22T00:33:13;10.80;;;6.60;;
72087;SDS011;59961;50.232;8.616;2022-12-22T00:35:59;12.17;;;6.90;;
72087;SDS011;59961;50.232;8.616;2022-12-22T00:38:43;11.57;;;6.78;;
72087;SDS011;59961;50.232;8.616;2022-12-22T00:41:27;13.15;;;7.05;;
72087;SDS011;59961;50.232;8.616;2022-12-22T00:44:11;11.60;;;7.00;;
72087;SDS011;59961;50.232;8.616;2022-12-22T00:46:54;16.23;;;8.00;;
72087;SDS011;59961;50.232;8.616;2022-12-22T00:49:38;12.97;;;7.20;;
72087;SDS011;59961;50.232;8.616;2022-12-22T00:52:23;11.60;;;7.18;;
72087;SDS011;59961;50.232;8.616;2022-12-22T00:55:13;13.48;;;7.07;;
72087;SDS011;59961;50.232;8.616;2022-12-22T00:57:58;12.77;;;6.57;;
72087;SDS011;59961;50.232;8.616;2022-12-22T01:00:43;11.77;;;6.63;;
72087;SDS011;59961;50.232;8.616;2022-12-22T01:03:27;11.27;;;6.10;;
72087;SDS011;59961;50.232;8.616;2022-12-22T01:06:11;12.20;;;6.72;;
72087;SDS011;59961;50.232;8.616;2022-12-22T01:08:55;11.23;;;6.72;;
72087;SDS011;59961;50.232;8.616;2022-12-22T01:11:39;11.35;;;6.70;;
72087;SDS011;59961;50.232;8.616;2022-12-22T01:14:22;11.50;;;6.50;;
72087;SDS011;59961;50.232;8.616;2022-12-22T01:17:08;10.80;;;6.20;;
72087;SDS011;59961;50.232;8.616;2022-12-22T01:19:52;11.80;;;6.20;;
72087;SDS011;59961;50.232;8.616;2022-12-22T01:22:36;9.38;;;5.55;;
72087;SDS011;59961;50.232;8.616;2022-12-22T01:25:20;9.93;;;6.30;;
72087;SDS011;59961;50.232;8.616;2022-12-22T01:28:04;10.88;;;6.30;;
72087;SDS011;59961;50.232;8.616;2022-12-22T01:30:48;10.90;;;6.30;;
72087;SDS011;59961;50.232;8.616;2022-12-22T01:33:31;10.57;;;6.38;;
72087;SDS011;59961;50.232;8.616;2022-12-22T01:36:15;10.70;;;6.13;;
72087;SDS011;59961;50.232;8.616;2022-12-22T01:38:59;12.27;;;6.32;;
72087;SDS011;59961;50.232;8.616;2022-12-22T01:41:43;9.65;;;6.00;;
72087;SDS011;59961;50.232;8.616;2022-12-22T01:44:27;11.20;;;6.03;;
72087;SDS011;59961;50.232;8.616;2022-12-22T01:47:44;11.00;;;5.70;;
72087;SDS011;59961;50.232;8.616;2022-12-22T01:50:25;9.82;;;6.28;;
72087;SDS011;59961;50.232;8.616;2022-12-22T01:53:11;10.70;;;5.63;;
72087;SDS011;59961;50.232;8.616;2022-12-22T01:55:57;10.93;;;5.90;;
72087;SDS011;59961;50.232;8.616;2022-12-22T01:58:43;10.13;;;5.67;;
72087;SDS011;59961;50.232;8.616;2022-12-22T02:01:28;11.20;;;5.82;;
72087;SDS011;59961;50.232;8.616;2022-12-22T02:04:12;10.23;;;5.80;;
72087;SDS011;59961;50.232;8.616;2022-12-22T02:06:57;10.18;;;5.38;;
72087;SDS011;59961;50.232;8.616;2022-12-22T02:09:56;11.70;;;5.18;;
72087;SDS011;59961;50.232;8.616;2022-12-22T02:12:49;9.97;;;5.50;;
72087;SDS011;59961;50.232;8.616;2022-12-22T02:21:08;10.25;;;5.55;;
72087;SDS011;59961;50.232;8.616;2022-12-22T02:24:02;10.15;;;5.85;;
72087;SDS011;59961;50.232;8.616;2022-12-22T02:26:49;9.20;;;5.47;;
72087;SDS011;59961;50.232;8.616;2022-12-22T02:29:35;9.70;;;5.55;;
72087;SDS011;59961;50.232;8.616;2022-12-22T02:32:21;9.73;;;5.40;;
72087;SDS011;59961;50.232;8.616;2022-12-22T02:35:12;11.57;;;5.22;;
72087;SDS011;59961;50.232;8.616;2022-12-22T02:38:18;8.23;;;5.25;;
72087;SDS011;59961;50.232;8.616;2022-12-22T02:46:50;8.10;;;4.43;;
72087;SDS011;59961;50.232;8.616;2022-12-22T02:49:42;6.78;;;3.78;;
72087;SDS011;59961;50.232;8.616;2022-12-22T02:52:30;7.10;;;4.05;;
72087;SDS011;59961;50.232;8.616;2022-12-22T02:55:15;7.03;;;3.30;;
72087;SDS011;59961;50.232;8.616;2022-12-22T02:57:59;6.90;;;3.50;;
72087;SDS011;59961;50.232;8.616;2022-12-22T03:00:43;6.82;;;4.00;;
72087;SDS011;59961;50.232;8.616;2022-12-22T03:03:27;6.82;;;3.75;;
72087;SDS011;59961;50.232;8.616;2022-12-22T03:06:10;6.65;;;3.72;;
72087;SDS011;59961;50.232;8.616;2022-12-22T03:08:54;6.23;;;3.20;;
72087;SDS011;59961;50.232;8.616;2022-12-22T03:11:38;7.05;;;3.70;;
72087;SDS011;59961;50.232;8.616;2022-12-22T03:14:22;6.05;;;3.40;;
72087;SDS011;59961;50.232;8.616;2022-12-22T03:17:06;5.95;;;3.30;;
72087;SDS011;59961;50.232;8.616;2022-12-22T03:19:50;7.05;;;3.50;;
72087;SDS011;59961;50.232;8.616;2022-12-22T03:22:34;6.50;;;3.20;;
72087;SDS011;59961;50.232;8.616;2022-12-22T03:25:18;6.25;;;3.33;;
72087;SDS011;59961;50.232;8.616;2022-12-22T03:28:06;6.72;;;3.25;;
72087;SDS011;59961;50.232;8.616;2022-12-22T03:30:31;5.88;;;2.97;;
72087;SDS011;59961;50.232;8.616;2022-12-22T03:32:56;4.17;;;2.07;;
72087;SDS011;59961;50.232;8.616;2022-12-22T03:35:22;3.88;;;2.20;;
72087;SDS011;59961;50.232;8.616;2022-12-22T03:37:47;5.60;;;2.55;;
72087;SDS011;59961;50.232;8.616;2022-12-22T03:40:12;3.65;;;1.90;;
72087;SDS011;59961;50.232;8.616;2022-12-22T03:42:37;3.87;;;1.90;;
72087;SDS011;59961;50.232;8.616;2022-12-22T03:45:21;3.45;;;1.75;;
72087;SDS011;59961;50.232;8.616;2022-12-22T03:48:05;4.03;;;2.30;;
72087;SDS011;59961;50.232;8.616;2022-12-22T03:50:30;3.90;;;2.20;;
72087;SDS011;59961;50.232;8.616;2022-12-22T03:52:55;4.40;;;2.13;;
72087;SDS011;59961;50.232;8.616;2022-12-22T03:55:20;5.32;;;2.40;;
72087;SDS011;59961;50.232;8.616;2022-12-22T03:57:46;4.80;;;2.50;;
72087;SDS011;59961;50.232;8.616;2022-12-22T04:00:11;4.30;;;2.70;;
72087;SDS011;59961;50.232;8.616;2022-12-22T04:02:36;6.03;;;3.30;;
72087;SDS011;59961;50.232;8.616;2022-12-22T04:05:01;5.07;;;3.20;;
72087;SDS011;59961;50.232;8.616;2022-12-22T04:07:26;5.40;;;3.10;;
72087;SDS011;59961;50.232;8.616;2022-12-22T04:09:52;5.85;;;3.13;;
72087;SDS011;59961;50.232;8.616;2022-12-22T04:12:35;5.83;;;3.50;;
72087;SDS011;59961;50.232;8.616;2022-12-22T04:15:20;5.10;;;2.80;;
72087;SDS011;59961;50.232;8.616;2022-12-22T04:17:45;7.15;;;3.40;;
72087;SDS011;59961;50.232;8.616;2022-12-22T04:20:10;5.70;;;3.40;;
72087;SDS011;59961;50.232;8.616;2022-12-22T04:22:35;5.57;;;3.17;;
72087;SDS011;59961;50.232;8.616;2022-12-22T04:25:00;4.83;;;3.03;;
72087;SDS011;59961;50.232;8.616;2022-12-22T04:27:26;6.23;;;3.47;;
72087;SDS011;59961;50.232;8.616;2022-12-22T04:29:51;5.28;;;3.00;;
72087;SDS011;59961;50.232;8.616;2022-12-22T04:32:16;7.22;;;3.45;;
72087;SDS011;59961;50.232;8.616;2022-12-22T04:34:41;9.07;;;3.70;;
72087;SDS011;59961;50.232;8.616;2022-12-22T04:37:06;7.65;;;4.07;;
72087;SDS011;59961;50.232;8.616;2022-12-22T04:39:31;8.57;;;3.80;;
72087;SDS011;59961;50.232;8.616;2022-12-22T04:41:56;7.27;;;3.90;;
72087;SDS011;59961;50.232;8.616;2022-12-22T04:44:21;8.23;;;4.20;;
72087;SDS011;59961;50.232;8.616;2022-12-22T04:46:47;7.63;;;4.18;;
72087;SDS011;59961;50.232;8.616;2022-12-22T04:49:12;8.32;;;4.38;;
72087;SDS011;59961;50.232;8.616;2022-12-22T04:51:37;8.00;;;3.53;;
72087;SDS011;59961;50.232;8.616;2022-12-22T04:54:02;6.03;;;3.65;;
72087;SDS011;59961;50.232;8.616;2022-12-22T04:56:27;6.60;;;3.88;;
72087;SDS011;59961;50.232;8.616;2022-12-22T04:58:52;9.70;;;4.28;;
72087;SDS011;59961;50.232;8.616;2022-12-22T05:01:18;6.28;;;3.80;;
72087;SDS011;59961;50.232;8.616;2022-12-22T05:03:43;7.23;;;3.90;;
72087;SDS011;59961;50.232;8.616;2022-12-22T05:06:08;6.30;;;3.70;;
72087;SDS011;59961;50.232;8.616;2022-12-22T05:08:34;8.83;;;4.07;;
72087;SDS011;59961;50.232;8.616;2022-12-22T05:10:59;7.97;;;3.60;;
72087;SDS011;59961;50.232;8.616;2022-12-22T05:13:24;6.50;;;3.57;;
72087;SDS011;59961;50.232;8.616;2022-12-22T05:15:49;7.57;;;4.03;;
72087;SDS011;59961;50.232;8.616;2022-12-22T05:18:14;5.57;;;3.10;;
72087;SDS011;59961;50.232;8.616;2022-12-22T05:20:40;7.93;;;3.30;;
72087;SDS011;59961;50.232;8.616;2022-12-22T05:23:05;6.97;;;3.10;;
72087;SDS011;59961;50.232;8.616;2022-12-22T05:25:30;4.95;;;2.97;;
72087;SDS011;59961;50.232;8.616;2022-12-22T05:27:55;5.47;;;3.10;;
72087;SDS011;59961;50.232;8.616;2022-12-22T05:30:20;5.83;;;3.27;;
72087;SDS011;59961;50.232;8.616;2022-12-22T05:32:45;6.67;;;3.00;;
72087;SDS011;59961;50.232;8.616;2022-12-22T05:35:11;5.25;;;2.75;;
72087;SDS011;59961;50.232;8.616;2022-12-22T05:37:36;5.57;;;3.00;;
72087;SDS011;59961;50.232;8.616;2022-12-22T05:40:01;5.25;;;2.63;;
72087;SDS011;59961;50.232;8.616;2022-12-22T05:42:26;5.77;;;2.70;;
72087;SDS011;59961;50.232;8.616;2022-12-22T05:47:26;4.70;;;2.60;;
72087;SDS011;59961;50.232;8.616;2022-12-22T05:49:51;5.80;;;2.77;;
72087;SDS011;59961;50.232;8.616;2022-12-22T05:52:16;6.40;;;2.35;;
72087;SDS011;59961;50.232;8.616;2022-12-22T05:54:41;4.93;;;2.80;;
72087;SDS011;59961;50.232;8.616;2022-12-22T05:57:06;4.97;;;2.60;;
72087;SDS011;59961;50.232;8.616;2022-12-22T05:59:31;5.50;;;2.70;;
72087;SDS011;59961;50.232;8.616;2022-12-22T06:01:57;5.65;;;2.40;;
72087;SDS011;59961;50.232;8.616;2022-12-22T06:04:22;5.95;;;2.25;;
72087;SDS011;59961;50.232;8.616;2022-12-22T06:06:47;5.05;;;2.25;;
72087;SDS011;59961;50.232;8.616;2022-12-22T06:09:12;3.78;;;1.98;;
72087;SDS011;59961;50.232;8.616;2022-12-22T06:11:37;3.90;;;2.17;;
72087;SDS011;59961;50.232;8.616;2022-12-22T06:14:02;7.17;;;2.40;;
72087;SDS011;59961;50.232;8.616;2022-12-22T06:16:27;5.32;;;2.28;;
72087;SDS011;59961;50.232;8.616;2022-12-22T06:18:53;5.27;;;2.63;;
72087;SDS011;59961;50.232;8.616;2022-12-22T06:21:18;5.90;;;2.60;;
72087;SDS011;59961;50.232;8.616;2022-12-22T06:23:43;4.70;;;2.60;;
72087;SDS011;59961;50.232;8.616;2022-12-22T06:26:08;4.33;;;2.40;;
72087;SDS011;59961;50.232;8.616;2022-12-22T06:28:33;4.90;;;2.33;;
72087;SDS011;59961;50.232;8.616;2022-12-22T06:30:58;5.13;;;2.40;;
72087;SDS011;59961;50.232;8.616;2022-12-22T06:33:24;4.73;;;2.47;;
72087;SDS011;59961;50.232;8.616;2022-12-22T06:35:49;6.43;;;3.07;;
72087;SDS011;59961;50.232;8.616;2022-12-22T06:38:14;7.28;;;4.00;;
72087;SDS011;59961;50.232;8.616;2022-12-22T06:40:39;6.38;;;3.13;;
72087;SDS011;59961;50.232;8.616;2022-12-22T06:43:04;5.05;;;2.50;;
72087;SDS011;59961;50.232;8.616;2022-12-22T06:45:32;6.47;;;2.85;;
72087;SDS011;59961;50.232;8.616;2022-12-22T06:47:57;5.77;;;2.70;;
72087;SDS011;59961;50.232;8.616;2022-12-22T06:50:22;5.65;;;2.70;;
72087;SDS011;59961;50.232;8.616;2022-12-22T06:52:47;5.32;;;2.90;;
72087;SDS011;59961;50.232;8.616;2022-12-22T06:55:13;5.18;;;2.50;;
72087;SDS011;59961;50.232;8.616;2022-12-22T06:57:38;3.60;;;2.23;;
72087;SDS011;59961;50.232;8.616;2022-12-22T07:00:03;6.97;;;2.93;;
72087;SDS011;59961;50.232;8.616;2022-12-22T07:02:28;6.17;;;2.63;;
72087;SDS011;59961;50.232;8.616;2022-12-22T07:04:53;5.87;;;2.50;;
72087;SDS011;59961;50.232;8.616;2022-12-22T07:07:18;5.40;;;2.78;;
72087;SDS011;59961;50.232;8.616;2022-12-22T07:09:44;5.40;;;2.40;;
72087;SDS011;59961;50.232;8.616;2022-12-22T07:12:09;4.45;;;2.20;;
72087;SDS011;59961;50.232;8.616;2022-12-22T07:14:34;4.57;;;2.20;;
72087;SDS011;59961;50.232;8.616;2022-12-22T07:16:59;8.33;;;2.33;;
72087;SDS011;59961;50.232;8.616;2022-12-22T07:19:24;6.05;;;2.38;;
72087;SDS011;59961;50.232;8.616;2022-12-22T07:21:49;5.72;;;2.78;;
72087;SDS011;59961;50.232;8.616;2022-12-22T07:24:15;5.00;;;2.37;;
72087;SDS011;59961;50.232;8.616;2022-12-22T07:26:46;4.03;;;2.13;;
72087;SDS011;59961;50.232;8.616;2022-12-22T07:29:12;4.68;;;1.92;;
72087;SDS011;59961;50.232;8.616;2022-12-22T07:31:37;4.77;;;1.97;;
72087;SDS011;59961;50.232;8.616;2022-12-22T07:34:02;3.88;;;1.98;;
72087;SDS011;59961;50.232;8.616;2022-12-22T07:36:27;6.03;;;2.10;;
72087;SDS011;59961;50.232;8.616;2022-12-22T07:38:52;5.28;;;2.00;;
72087;SDS011;59961;50.232;8.616;2022-12-22T07:41:18;5.60;;;1.80;;
72087;SDS011;59961;50.232;8.616;2022-12-22T07:44:02;6.00;;;1.70;;
72087;SDS011;59961;50.232;8.616;2022-12-22T07:46:29;3.80;;;1.70;;
72087;SDS011;59961;50.232;8.616;2022-12-22T07:48:55;4.60;;;1.98;;
72087;SDS011;59961;50.232;8.616;2022-12-22T07:51:41;3.40;;;1.50;;
72087;SDS011;59961;50.232;8.616;2022-12-22T07:54:07;4.47;;;1.67;;
72087;SDS011;59961;50.232;8.616;2022-12-22T07:56:32;3.88;;;1.55;;
72087;SDS011;59961;50.232;8.616;2022-12-22T07:58:58;4.97;;;1.53;;
72087;SDS011;59961;50.232;8.616;2022-12-22T08:01:23;4.93;;;1.53;;
72087;SDS011;59961;50.232;8.616;2022-12-22T08:03:48;2.37;;;1.13;;
72087;SDS011;59961;50.232;8.616;2022-12-22T08:06:13;2.78;;;1.08;;
72087;SDS011;59961;50.232;8.616;2022-12-22T08:08:38;2.72;;;1.15;;
72087;SDS011;59961;50.232;8.616;2022-12-22T08:11:03;2.67;;;1.15;;
72087;SDS011;59961;50.232;8.616;2022-12-22T08:13:29;3.17;;;1.40;;
72087;SDS011;59961;50.232;8.616;2022-12-22T08:15:54;4.07;;;1.48;;
72087;SDS011;59961;50.232;8.616;2022-12-22T08:18:19;2.53;;;1.10;;
72087;SDS011;59961;50.232;8.616;2022-12-22T08:20:51;2.47;;;1.27;;
72087;SDS011;59961;50.232;8.616;2022-12-22T08:23:16;3.17;;;0.80;;
72087;SDS011;59961;50.232;8.616;2022-12-22T08:25:41;3.50;;;1.13;;
72087;SDS011;59961;50.232;8.616;2022-12-22T08:28:07;3.30;;;1.10;;
72087;SDS011;59961;50.232;8.616;2022-12-22T08:30:32;3.43;;;1.63;;
72087;SDS011;59961;50.232;8.616;2022-12-22T08:32:58;3.00;;;1.17;;
72087;SDS011;59961;50.232;8.616;2022-12-22T08:35:23;2.03;;;0.90;;
72087;SDS011;59961;50.232;8.616;2022-12-22T08:37:48;3.23;;;0.97;;
72087;SDS011;59961;50.232;8.616;2022-12-22T08:40:16;3.65;;;0.90;;
72087;SDS011;59961;50.232;8.616;2022-12-22T08:42:43;2.73;;;0.90;;
72087;SDS011;59961;50.232;8.616;2022-12-22T08:45:08;2.05;;;1.10;;
72087;SDS011;59961;50.232;8.616;2022-12-22T08:47:35;1.70;;;1.00;;
72087;SDS011;59961;50.232;8.616;2022-12-22T08:50:00;2.53;;;1.30;;
72087;SDS011;59961;50.232;8.616;2022-12-22T08:52:25;2.50;;;1.00;;
72087;SDS011;59961;50.232;8.616;2022-12-22T08:54:50;2.67;;;1.07;;
72087;SDS011;59961;50.232;8.616;2022-12-22T08:57:16;3.80;;;1.20;;
72087;SDS011;59961;50.232;8.616;2022-12-22T08:59:41;1.90;;;1.05;;
72087;SDS011;59961;50.232;8.616;2022-12-22T09:02:06;3.03;;;1.40;;
72087;SDS011;59961;50.232;8.616;2022-12-22T09:04:31;3.40;;;1.27;;
72087;SDS011;59961;50.232;8.616;2022-12-22T09:06:57;3.33;;;1.15;;
72087;SDS011;59961;50.232;8.616;2022-12-22T09:09:22;2.93;;;1.30;;
72087;SDS011;59961;50.232;8.616;2022-12-22T09:11:47;2.50;;;1.00;;
72087;SDS011;59961;50.232;8.616;2022-12-22T09:14:13;2.60;;;1.07;;
72087;SDS011;59961;50.232;8.616;2022-12-22T09:16:38;3.23;;;0.90;;
72087;SDS011;59961;50.232;8.616;2022-12-22T09:19:04;1.83;;;1.30;;
72087;SDS011;59961;50.232;8.616;2022-12-22T09:21:30;2.23;;;0.90;;
72087;SDS011;59961;50.232;8.616;2022-12-22T09:23:55;3.57;;;1.10;;
72087;SDS011;59961;50.232;8.616;2022-12-22T09:26:21;2.28;;;0.90;;
72087;SDS011;59961;50.232;8.616;2022-12-22T09:28:46;3.90;;;0.87;;
72087;SDS011;59961;50.232;8.616;2022-12-22T09:31:12;4.10;;;0.95;;
72087;SDS011;59961;50.232;8.616;2022-12-22T09:33:37;5.23;;;1.47;;
72087;SDS011;59961;50.232;8.616;2022-12-22T09:36:06;1.58;;;0.73;;
72087;SDS011;59961;50.232;8.616;2022-12-22T09:38:31;1.92;;;0.75;;
72087;SDS011;59961;50.232;8.616;2022-12-22T09:40:56;4.30;;;1.00;;
72087;SDS011;59961;50.232;8.616;2022-12-22T09:43:26;4.38;;;1.17;;
72087;SDS011;59961;50.232;8.616;2022-12-22T09:45:52;7.57;;;1.20;;
72087;SDS011;59961;50.232;8.616;2022-12-22T09:48:17;3.70;;;0.93;;
72087;SDS011;59961;50.232;8.616;2022-12-22T09:50:42;4.87;;;1.17;;
72087;SDS011;59961;50.232;8.616;2022-12-22T09:53:11;2.40;;;1.10;;
72087;SDS011;59961;50.232;8.616;2022-12-22T09:55:40;4.88;;;1.10;;
72087;SDS011;59961;50.232;8.616;2022-12-22T09:58:22;5.30;;;1.10;;
72087;SDS011;59961;50.232;8.616;2022-12-22T10:00:50;1.80;;;0.80;;
72087;SDS011;59961;50.232;8.616;2022-12-22T10:03:24;4.68;;;1.35;;
72087;SDS011;59961;50.232;8.616;2022-12-22T10:08:27;1.42;;;0.80;;
72087;SDS011;59961;50.232;8.616;2022-12-22T10:10:53;1.60;;;0.80;;
72087;SDS011;59961;50.232;8.616;2022-12-22T10:13:18;4.43;;;1.00;;
72087;SDS011;59961;50.232;8.616;2022-12-22T10:15:44;3.65;;;1.08;;
72087;SDS011;59961;50.232;8.616;2022-12-22T10:20:38;4.25;;;1.15;;
72087;SDS011;59961;50.232;8.616;2022-12-22T10:23:11;4.53;;;1.23;;
72087;SDS011;59961;50.232;8.616;2022-12-22T10:25:37;2.20;;;0.97;;
72087;SDS011;59961;50.232;8.616;2022-12-22T10:28:04;2.70;;;1.13;;
72087;SDS011;59961;50.232;8.616;2022-12-22T10:30:31;4.15;;;2.63;;
72087;SDS011;59961;50.232;8.616;2022-12-22T10:33:01;3.22;;;2.13;;
72087;SDS011;59961;50.232;8.616;2022-12-22T10:35:35;3.13;;;0.98;;
72087;SDS011;59961;50.232;8.616;2022-12-22T10:38:11;4.17;;;1.47;;
72087;SDS011;59961;50.232;8.616;2022-12-22T10:40:41;3.28;;;1.70;;
72087;SDS011;59961;50.232;8.616;2022-12-22T10:43:09;3.42;;;1.08;;
72087;SDS011;59961;50.232;8.616;2022-12-22T10:45:41;1.35;;;0.80;;
72087;SDS011;59961;50.232;8.616;2022-12-22T10:48:10;3.03;;;1.15;;
72087;SDS011;59961;50.232;8.616;2022-12-22T10:50:36;1.85;;;0.80;;
72087;SDS011;59961;50.232;8.616;2022-12-22T10:53:08;2.83;;;1.20;;
72087;SDS011;59961;50.232;8.616;2022-12-22T10:55:33;2.10;;;0.80;;
72087;SDS011;59961;50.232;8.616;2022-12-22T11:00:34;3.80;;;1.30;;
72087;SDS011;59961;50.232;8.616;2022-12-22T11:03:00;1.20;;;0.70;;
72087;SDS011;59961;50.232;8.616;2022-12-22T11:05:25;2.53;;;0.93;;
72087;SDS011;59961;50.232;8.616;2022-12-22T11:07:51;1.03;;;0.60;;
72087;SDS011;59961;50.232;8.616;2022-12-22T11:10:18;1.83;;;0.93;;
72087;SDS011;59961;50.232;8.616;2022-12-22T11:17:47;3.22;;;0.80;;
72087;SDS011;59961;50.232;8.616;2022-12-22T11:28:03;0.80;;;0.50;;
72087;SDS011;59961;50.232;8.616;2022-12-22T11:30:39;2.53;;;1.10;;
72087;SDS011;59961;50.232;8.616;2022-12-22T11:41:46;0.93;;;0.52;;
72087;SDS011;59961;50.232;8.616;2022-12-22T11:43:53;0.85;;;0.73;;
72087;SDS011;59961;50.232;8.616;2022-12-22T11:46:27;0.77;;;0.50;;
72087;SDS011;59961;50.232;8.616;2022-12-22T11:49:07;2.38;;;0.40;;
72087;SDS011;59961;50.232;8.616;2022-12-22T11:51:59;2.70;;;0.60;;
72087;SDS011;59961;50.232;8.616;2022-12-22T11:57:17;2.83;;;0.65;;
72087;SDS011;59961;50.232;8.616;2022-12-22T12:02:33;0.75;;;0.50;;
72087;SDS011;59961;50.232;8.616;2022-12-22T12:07:49;0.80;;;0.45;;
72087;SDS011;59961;50.232;8.616;2022-12-22T12:10:25;2.17;;;0.80;;
72087;SDS011;59961;50.232;8.616;2022-12-22T12:12:52;0.60;;;0.40;;
72087;SDS011;59961;50.232;8.616;2022-12-22T12:15:26;0.90;;;0.50;;
72087;SDS011;59961;50.232;8.616;2022-12-22T12:18:00;0.90;;;0.70;;
72087;SDS011;59961;50.232;8.616;2022-12-22T12:23:12;0.95;;;0.55;;
72087;SDS011;59961;50.232;8.616;2022-12-22T12:25:43;1.97;;;0.90;;
72087;SDS011;59961;50.232;8.616;2022-12-22T12:30:47;2.38;;;1.00;;
72087;SDS011;59961;50.232;8.616;2022-12-22T12:35:50;3.10;;;1.27;;
72087;SDS011;59961;50.232;8.616;2022-12-22T12:38:20;3.50;;;1.20;;
72087;SDS011;59961;50.232;8.616;2022-12-22T12:40:53;2.22;;;1.00;;
72087;SDS011;59961;50.232;8.616;2022-12-22T12:43:19;2.75;;;1.33;;
72087;SDS011;59961;50.232;8.616;2022-12-22T12:45:48;2.65;;;1.27;;
72087;SDS011;59961;50.232;8.616;2022-12-22T12:50:49;4.60;;;1.33;;
72087;SDS011;59961;50.232;8.616;2022-12-22T12:53:15;2.20;;;0.93;;
72087;SDS011;59961;50.232;8.616;2022-12-22T13:00:58;3.20;;;1.45;;
72087;SDS011;59961;50.232;8.616;2022-12-22T13:05:56;2.20;;;1.30;;
72087;SDS011;59961;50.232;8.616;2022-12-22T13:15:46;3.15;;;1.45;;
72087;SDS011;59961;50.232;8.616;2022-12-22T13:20:39;3.93;;;1.00;;
72087;SDS011;59961;50.232;8.616;2022-12-22T13:23:09;3.17;;;1.45;;
72087;SDS011;59961;50.232;8.616;2022-12-22T13:25:38;3.40;;;1.40;;
72087;SDS011;59961;50.232;8.616;2022-12-22T13:28:04;2.45;;;1.05;;
72087;SDS011;59961;50.232;8.616;2022-12-22T13:30:30;3.20;;;1.50;;
72087;SDS011;59961;50.232;8.616;2022-12-22T13:32:55;2.83;;;1.30;;
72087;SDS011;59961;50.232;8.616;2022-12-22T13:35:29;2.55;;;1.40;;
72087;SDS011;59961;50.232;8.616;2022-12-22T13:37:56;2.22;;;1.13;;
72087;SDS011;59961;50.232;8.616;2022-12-22T13:40:23;2.20;;;1.20;;
72087;SDS011;59961;50.232;8.616;2022-12-22T13:42:52;4.35;;;1.15;;
72087;SDS011;59961;50.232;8.616;2022-12-22T13:45:23;1.58;;;1.05;;
72087;SDS011;59961;50.232;8.616;2022-12-22T13:47:49;2.20;;;1.02;;
72087;SDS011;59961;50.232;8.616;2022-12-22T13:50:19;2.43;;;1.27;;
72087;SDS011;59961;50.232;8.616;2022-12-22T13:52:45;2.97;;;1.33;;
72087;SDS011;59961;50.232;8.616;2022-12-22T13:55:14;2.57;;;1.00;;
72087;SDS011;59961;50.232;8.616;2022-12-22T13:57:40;2.42;;;1.00;;
72087;SDS011;59961;50.232;8.616;2022-12-22T14:00:15;3.80;;;1.17;;
72087;SDS011;59961;50.232;8.616;2022-12-22T14:02:41;2.25;;;1.00;;
72087;SDS011;59961;50.232;8.616;2022-12-22T14:05:09;2.83;;;1.38;;
72087;SDS011;59961;50.232;8.616;2022-12-22T14:07:34;2.47;;;1.33;;
72087;SDS011;59961;50.232;8.616;2022-12-22T14:09:59;2.30;;;1.30;;
72087;SDS011;59961;50.232;8.616;2022-12-22T14:12:26;3.00;;;1.10;;
72087;SDS011;59961;50.232;8.616;2022-12-22T14:14:53;2.50;;;1.20;;
72087;SDS011;59961;50.232;8.616;2022-12-22T14:19:43;4.18;;;1.85;;
72087;SDS011;59961;50.232;8.616;2022-12-22T14:22:16;4.07;;;1.90;;
72087;SDS011;59961;50.232;8.616;2022-12-22T14:24:43;4.23;;;2.00;;
72087;SDS011;59961;50.232;8.616;2022-12-22T14:27:14;3.17;;;1.80;;
72087;SDS011;59961;50.232;8.616;2022-12-22T14:29:40;2.75;;;1.50;;
72087;SDS011;59961;50.232;8.616;2022-12-22T14:32:06;4.60;;;1.50;;
72087;SDS011;59961;50.232;8.616;2022-12-22T14:34:33;4.15;;;1.98;;
72087;SDS011;59961;50.232;8.616;2022-12-22T14:36:59;3.40;;;1.75;;
72087;SDS011;59961;50.232;8.616;2022-12-22T14:39:25;2.83;;;1.33;;
72087;SDS011;59961;50.232;8.616;2022-12-22T14:41:55;3.10;;;1.33;;
72087;SDS011;59961;50.232;8.616;2022-12-22T14:47:05;2.88;;;1.67;;
72087;SDS011;59961;50.232;8.616;2022-12-22T14:49:32;3.30;;;1.80;;
72087;SDS011;59961;50.232;8.616;2022-12-22T14:52:04;3.27;;;1.70;;
72087;SDS011;59961;50.232;8.616;2022-12-22T14:54:30;3.72;;;1.50;;
72087;SDS011;59961;50.232;8.616;2022-12-22T14:57:01;3.40;;;1.40;;
72087;SDS011;59961;50.232;8.616;2022-12-22T14:59:27;3.10;;;1.25;;
72087;SDS011;59961;50.232;8.616;2022-12-22T15:01:57;3.30;;;1.40;;
72087;SDS011;59961;50.232;8.616;2022-12-22T15:04:22;3.72;;;1.35;;
72087;SDS011;59961;50.232;8.616;2022-12-22T15:06:48;3.33;;;1.60;;
72087;SDS011;59961;50.232;8.616;2022-12-22T15:11:42;3.67;;;1.67;;
72087;SDS011;59961;50.232;8.616;2022-12-22T15:14:12;4.07;;;1.83;;
72087;SDS011;59961;50.232;8.616;2022-12-22T15:16:37;3.65;;;1.73;;
72087;SDS011;59961;50.232;8.616;2022-12-22T15:19:03;4.37;;;1.90;;
72087;SDS011;59961;50.232;8.616;2022-12-22T15:21:34;4.73;;;1.63;;
72087;SDS011;59961;50.232;8.616;2022-12-22T15:23:59;2.97;;;1.43;;
72087;SDS011;59961;50.232;8.616;2022-12-22T15:26:25;2.42;;;1.33;;
72087;SDS011;59961;50.232;8.616;2022-12-22T15:28:50;3.60;;;1.70;;
72087;SDS011;59961;50.232;8.616;2022-12-22T15:31:15;3.63;;;1.42;;
72087;SDS011;59961;50.232;8.616;2022-12-22T15:33:40;2.67;;;1.60;;
72087;SDS011;59961;50.232;8.616;2022-12-22T15:36:08;4.03;;;1.67;;
72087;SDS011;59961;50.232;8.616;2022-12-22T15:38:34;3.35;;;1.40;;
72087;SDS011;59961;50.232;8.616;2022-12-22T15:40:59;2.80;;;1.40;;
72087;SDS011;59961;50.232;8.616;2022-12-22T15:43:24;2.38;;;1.30;;
72087;SDS011;59961;50.232;8.616;2022-12-22T15:45:49;2.17;;;1.10;;
72087;SDS011;59961;50.232;8.616;2022-12-22T15:48:17;2.07;;;0.90;;
72087;SDS011;59961;50.232;8.616;2022-12-22T15:50:45;2.33;;;1.25;;
72087;SDS011;59961;50.232;8.616;2022-12-22T15:53:11;2.73;;;1.00;;
72087;SDS011;59961;50.232;8.616;2022-12-22T15:55:43;2.67;;;1.25;;
72087;SDS011;59961;50.232;8.616;2022-12-22T15:58:09;1.52;;;0.90;;
72087;SDS011;59961;50.232;8.616;2022-12-22T16:00:35;2.20;;;1.23;;
72087;SDS011;59961;50.232;8.616;2022-12-22T16:03:02;1.45;;;1.00;;
72087;SDS011;59961;50.232;8.616;2022-12-22T16:05:27;2.80;;;1.20;;
72087;SDS011;59961;50.232;8.616;2022-12-22T16:07:52;2.55;;;0.80;;
72087;SDS011;59961;50.232;8.616;2022-12-22T16:10:26;2.67;;;0.80;;
72087;SDS011;59961;50.232;8.616;2022-12-22T16:12:52;3.03;;;0.98;;
72087;SDS011;59961;50.232;8.616;2022-12-22T16:15:19;2.08;;;1.02;;
72087;SDS011;59961;50.232;8.616;2022-12-22T16:17:44;1.87;;;1.10;;
72087;SDS011;59961;50.232;8.616;2022-12-22T16:20:10;1.98;;;1.17;;
72087;SDS011;59961;50.232;8.616;2022-12-22T16:22:35;3.10;;;1.20;;
72087;SDS011;59961;50.232;8.616;2022-12-22T16:25:01;1.23;;;0.73;;
72087;SDS011;59961;50.232;8.616;2022-12-22T16:27:26;1.52;;;0.85;;
72087;SDS011;59961;50.232;8.616;2022-12-22T16:29:53;2.13;;;0.88;;
72087;SDS011;59961;50.232;8.616;2022-12-22T16:32:23;1.73;;;1.10;;